DA501 UCFM-UCFM
Flight info
| Callsign | DA501 |
|---|---|
| Flight time | N/A |
| Altitude | 120000 |
| Route | UCFM/UCFMUCFM |
| Aircraft | DA62/L-SDE3FGHIRWY/LB1 |
Departure
| Time | 2026-04-19 09:54 |
|---|---|
| Airport | Manas International Airport (UCFM) |
Arrival
| Time | N/A |
|---|---|
| Airport | Manas International Airport (UCFM) |
| Time | Latitude | Longitude | Altitude | Speed | Heading |
|---|---|---|---|---|---|
| 2026-04-19 09:48 | 43.05761 | 74.47063 | 2080 ft | 0 kts | 19° |
| 2026-04-19 09:51 | 43.05762 | 74.47064 | 2080 ft | 5 kts | 19° |
| 2026-04-19 09:51 | 43.05796 | 74.47068 | 2080 ft | 0 kts | 315° |
| 2026-04-19 09:51 | 43.05817 | 74.46951 | 2081 ft | 0 kts | 269° |
| 2026-04-19 09:51 | 43.05805 | 74.46867 | 2081 ft | 31 kts | 259° |
| 2026-04-19 09:52 | 43.05791 | 74.46756 | 2082 ft | 3 kts | 259° |
| 2026-04-19 09:52 | 43.05770 | 74.46593 | 2083 ft | 28 kts | 260° |
| 2026-04-19 09:52 | 43.05789 | 74.46471 | 2083 ft | 7 kts | 336° |
| 2026-04-19 09:52 | 43.05974 | 74.46456 | 2084 ft | 0 kts | 45° |
| 2026-04-19 09:53 | 43.05997 | 74.46590 | 2083 ft | 0 kts | 79° |
| 2026-04-19 09:53 | 43.06029 | 74.46829 | 2081 ft | 99 kts | 79° |
| 2026-04-19 09:53 | 43.06223 | 74.48404 | 2071 ft | 211 kts | 80° |
| 2026-04-19 09:53 | 43.06467 | 74.50397 | 2057 ft | 227 kts | 80° |
| 2026-04-19 09:54 | 43.06777 | 74.52915 | 2534 ft | 369 kts | 81° |
| 2026-04-19 09:54 | 43.07318 | 74.57096 | 5359 ft | 473 kts | 79° |
| 2026-04-19 09:54 | 43.07930 | 74.61696 | 10980 ft | 506 kts | 79° |
| 2026-04-19 09:54 | 43.08608 | 74.66640 | 15722 ft | 542 kts | 79° |
| 2026-04-19 09:55 | 43.09311 | 74.71691 | 20516 ft | 534 kts | 80° |
| 2026-04-19 09:55 | 43.10038 | 74.76786 | 24668 ft | 554 kts | 82° |
| 2026-04-19 09:55 | 43.10777 | 74.81902 | 28645 ft | 541 kts | 84° |
| 2026-04-19 09:55 | 43.11451 | 74.86433 | 32587 ft | 521 kts | 83° |
| 2026-04-19 09:56 | 43.12011 | 74.89991 | 35254 ft | 526 kts | 82° |
| 2026-04-19 09:56 | 43.12827 | 74.95070 | 36517 ft | 564 kts | 81° |
| 2026-04-19 09:56 | 43.13692 | 75.00425 | 37591 ft | 583 kts | 79° |
| 2026-04-19 09:56 | 43.14579 | 75.05879 | 39012 ft | 590 kts | 79° |
| 2026-04-19 09:57 | 43.15197 | 75.11401 | 40156 ft | 586 kts | 85° |
| 2026-04-19 09:57 | 43.15630 | 75.17018 | 40288 ft | 589 kts | 75° |
| 2026-04-19 09:57 | 43.16249 | 75.22751 | 35452 ft | 665 kts | 85° |
| 2026-04-19 09:57 | 43.17125 | 75.29681 | 31298 ft | 805 kts | 84° |
| 2026-04-19 09:58 | 43.17564 | 75.37412 | 33559 ft | 821 kts | 97° |
| 2026-04-19 09:58 | 43.16314 | 75.44861 | 37506 ft | 793 kts | 112° |
| 2026-04-19 09:58 | 43.14508 | 75.52003 | 41605 ft | 792 kts | 111° |
| 2026-04-19 09:58 | 43.12699 | 75.59138 | 44859 ft | 803 kts | 110° |
| 2026-04-19 09:59 | 43.10858 | 75.66442 | 46339 ft | 816 kts | 110° |
| 2026-04-19 09:59 | 43.09012 | 75.73809 | 48160 ft | 821 kts | 110° |
| 2026-04-19 09:59 | 43.07158 | 75.81209 | 49877 ft | 828 kts | 110° |
| 2026-04-19 09:59 | 43.05302 | 75.88704 | 50966 ft | 833 kts | 110° |
| 2026-04-19 10:00 | 43.03449 | 75.96187 | 52672 ft | 830 kts | 110° |
| 2026-04-19 10:00 | 43.01600 | 76.03647 | 54266 ft | 827 kts | 110° |
| 2026-04-19 10:00 | 42.99762 | 76.11082 | 55430 ft | 829 kts | 106° |
| 2026-04-19 10:00 | 42.98323 | 76.18824 | 53287 ft | 862 kts | 106° |
| 2026-04-19 10:01 | 42.97029 | 76.27097 | 49756 ft | 923 kts | 102° |
| 2026-04-19 10:01 | 42.95768 | 76.35753 | 50582 ft | 935 kts | 102° |
| 2026-04-19 10:01 | 42.94484 | 76.44500 | 52262 ft | 943 kts | 102° |
| 2026-04-19 10:01 | 42.93203 | 76.53297 | 54042 ft | 949 kts | 102° |
| 2026-04-19 10:02 | 42.91916 | 76.62152 | 55628 ft | 954 kts | 102° |
| 2026-04-19 10:02 | 42.90625 | 76.71034 | 57151 ft | 955 kts | 102° |
| 2026-04-19 10:02 | 42.89334 | 76.79924 | 58605 ft | 957 kts | 102° |
| 2026-04-19 10:02 | 42.88025 | 76.88813 | 59781 ft | 956 kts | 104° |
| 2026-04-19 10:03 | 42.85898 | 76.97217 | 61645 ft | 917 kts | 123° |
| 2026-04-19 10:03 | 42.82148 | 77.03841 | 63950 ft | 859 kts | 146° |
| 2026-04-19 10:03 | 42.77675 | 77.09152 | 64376 ft | 857 kts | 141° |
| 2026-04-19 10:03 | 42.73482 | 77.14873 | 63237 ft | 849 kts | 136° |
| 2026-04-19 10:04 | 42.69460 | 77.20606 | 63811 ft | 815 kts | 107° |
| 2026-04-19 10:04 | 42.65996 | 77.26430 | 58251 ft | 798 kts | 120° |
| 2026-04-19 10:04 | 42.62420 | 77.32683 | 51703 ft | 894 kts | 133° |
| 2026-04-19 10:04 | 42.58316 | 77.39256 | 51052 ft | 926 kts | 132° |
| 2026-04-19 10:05 | 42.54086 | 77.46041 | 50982 ft | 959 kts | 132° |
| 2026-04-19 10:05 | 42.49726 | 77.53040 | 51503 ft | 985 kts | 132° |
| 2026-04-19 10:05 | 42.45242 | 77.60216 | 52441 ft | 1010 kts | 132° |
| 2026-04-19 10:05 | 42.40722 | 77.67416 | 53968 ft | 1024 kts | 132° |
| 2026-04-19 10:06 | 42.36080 | 77.74804 | 55909 ft | 1037 kts | 132° |
| 2026-04-19 10:06 | 42.31379 | 77.82306 | 57369 ft | 1055 kts | 132° |
| 2026-04-19 10:06 | 42.26614 | 77.89932 | 58744 ft | 1070 kts | 132° |
| 2026-04-19 10:06 | 42.21803 | 77.97653 | 60335 ft | 1081 kts | 132° |
| 2026-04-19 10:07 | 42.16946 | 78.05449 | 62009 ft | 1090 kts | 132° |
| 2026-04-19 10:07 | 42.12030 | 78.13323 | 63270 ft | 1103 kts | 132° |
| 2026-04-19 10:07 | 42.07065 | 78.21253 | 64531 ft | 1113 kts | 132° |
| 2026-04-19 10:07 | 42.02053 | 78.29247 | 65822 ft | 1123 kts | 132° |
| 2026-04-19 10:08 | 41.96997 | 78.37316 | 66690 ft | 1134 kts | 132° |
| 2026-04-19 10:08 | 41.91896 | 78.45449 | 67831 ft | 1142 kts | 132° |
| 2026-04-19 10:08 | 41.86754 | 78.53635 | 69020 ft | 1153 kts | 132° |
| 2026-04-19 10:08 | 41.81552 | 78.61902 | 70206 ft | 1167 kts | 132° |
| 2026-04-19 10:09 | 41.76274 | 78.70275 | 71435 ft | 1185 kts | 132° |
| 2026-04-19 10:09 | 41.70900 | 78.78778 | 72778 ft | 1206 kts | 132° |
| 2026-04-19 10:09 | 41.65420 | 78.87423 | 74258 ft | 1231 kts | 132° |
| 2026-04-19 10:09 | 41.59815 | 78.96245 | 75922 ft | 1262 kts | 132° |
| 2026-04-19 10:10 | 41.54049 | 79.05297 | 77787 ft | 1297 kts | 132° |
| 2026-04-19 10:10 | 41.48107 | 79.14598 | 79899 ft | 1339 kts | 132° |
| 2026-04-19 10:10 | 41.41941 | 79.24219 | 82126 ft | 1394 kts | 132° |
| 2026-04-19 10:10 | 41.35459 | 79.34294 | 83352 ft | 1475 kts | 132° |
| 2026-04-19 10:11 | 41.28543 | 79.44968 | 83958 ft | 1576 kts | 132° |
| 2026-04-19 10:11 | 41.21058 | 79.56417 | 85312 ft | 1711 kts | 132° |
| 2026-04-19 10:11 | 41.12929 | 79.68771 | 87305 ft | 1903 kts | 132° |
| 2026-04-19 10:11 | 41.03507 | 79.82993 | 89745 ft | 2128 kts | 132° |
| 2026-04-19 10:12 | 40.93731 | 79.97689 | 91863 ft | 2171 kts | 132° |
| 2026-04-19 10:12 | 40.83544 | 80.12972 | 94111 ft | 2276 kts | 133° |
| 2026-04-19 10:12 | 40.71866 | 80.30362 | 97434 ft | 2781 kts | 133° |
| 2026-04-19 10:12 | 40.57594 | 80.51427 | 0 ft | 3699 kts | 133° |
| 2026-04-19 10:13 | 40.35836 | 80.83136 | 0 ft | 5537 kts | 133° |
| 2026-04-19 10:13 | 40.09016 | 81.21937 | 0 ft | 5819 kts | 133° |
| 2026-04-19 10:13 | 39.81803 | 81.61145 | 0 ft | 5841 kts | 133° |
| 2026-04-19 10:13 | 39.54539 | 82.00287 | 0 ft | 5862 kts | 133° |
| 2026-04-19 10:14 | 39.27114 | 82.39550 | 0 ft | 5892 kts | 133° |
| 2026-04-19 10:14 | 38.99670 | 82.78694 | 0 ft | 5886 kts | 133° |
| 2026-04-19 10:14 | 38.72267 | 83.17632 | 0 ft | 5873 kts | 133° |
| 2026-04-19 10:14 | 38.44885 | 83.56376 | 0 ft | 5871 kts | 133° |
| 2026-04-19 10:15 | 38.17495 | 83.94988 | 0 ft | 5881 kts | 133° |
| 2026-04-19 10:15 | 37.90061 | 84.33533 | 0 ft | 5891 kts | 133° |
| 2026-04-19 10:15 | 37.62608 | 84.71973 | 0 ft | 5893 kts | 133° |
| 2026-04-19 10:15 | 37.35144 | 85.10260 | 0 ft | 5888 kts | 133° |
| 2026-04-19 10:16 | 37.07692 | 85.48401 | 0 ft | 5887 kts | 133° |
| 2026-04-19 10:16 | 36.80254 | 85.86387 | 0 ft | 5888 kts | 133° |
| 2026-04-19 10:16 | 36.52802 | 86.24258 | 0 ft | 5892 kts | 133° |
| 2026-04-19 10:16 | 36.25325 | 86.62030 | 0 ft | 5895 kts | 133° |
| 2026-04-19 10:17 | 35.97850 | 86.99666 | 0 ft | 5895 kts | 133° |
| 2026-04-19 10:17 | 35.70382 | 87.37161 | 0 ft | 5894 kts | 133° |
| 2026-04-19 10:17 | 35.42938 | 87.74498 | 0 ft | 5887 kts | 133° |
| 2026-04-19 10:17 | 35.15501 | 88.11713 | 0 ft | 5887 kts | 133° |
| 2026-04-19 10:18 | 34.88044 | 88.48843 | 0 ft | 5893 kts | 132° |
| 2026-04-19 10:18 | 34.60584 | 88.85857 | 0 ft | 5899 kts | 132° |
| 2026-04-19 10:18 | 34.33097 | 89.22785 | 0 ft | 5900 kts | 132° |
| 2026-04-19 10:19 | 33.78112 | 89.96296 | 0 ft | 5904 kts | 132° |
| 2026-04-19 10:19 | 33.50598 | 90.32905 | 0 ft | 5904 kts | 132° |
| 2026-04-19 10:19 | 33.23084 | 90.69399 | 0 ft | 5905 kts | 132° |
| 2026-04-19 10:19 | 32.95591 | 91.05753 | 0 ft | 5906 kts | 132° |
| 2026-04-19 10:20 | 32.68105 | 91.41986 | 0 ft | 5907 kts | 132° |
| 2026-04-19 10:20 | 32.40571 | 91.78170 | 0 ft | 5909 kts | 132° |
| 2026-04-19 10:20 | 32.13048 | 92.14232 | 0 ft | 5911 kts | 132° |
| 2026-04-19 10:20 | 31.85494 | 92.50224 | 0 ft | 5912 kts | 132° |
| 2026-04-19 10:21 | 31.57945 | 92.86106 | 0 ft | 5911 kts | 132° |
| 2026-04-19 10:21 | 31.30430 | 93.21841 | 0 ft | 5911 kts | 132° |
| 2026-04-19 10:21 | 31.02899 | 93.57491 | 0 ft | 5915 kts | 132° |
| 2026-04-19 10:21 | 30.75361 | 93.93051 | 0 ft | 5917 kts | 132° |
| 2026-04-19 10:22 | 30.47787 | 94.28554 | 0 ft | 5920 kts | 132° |
| 2026-04-19 10:22 | 30.20216 | 94.63955 | 0 ft | 5923 kts | 132° |
| 2026-04-19 10:22 | 29.92612 | 94.99304 | 0 ft | 5926 kts | 132° |
| 2026-04-19 10:22 | 29.64950 | 95.34505 | 0 ft | 5927 kts | 133° |
| 2026-04-19 10:23 | 29.36906 | 95.68273 | 0 ft | 5926 kts | 135° |
| 2026-04-19 10:23 | 29.07118 | 96.00909 | 0 ft | 5931 kts | 137° |
| 2026-04-19 10:23 | 28.75860 | 96.31661 | 0 ft | 5932 kts | 141° |
| 2026-04-19 10:23 | 28.42657 | 96.59524 | 0 ft | 5929 kts | 147° |
| 2026-04-19 10:24 | 28.07391 | 96.83741 | 0 ft | 5927 kts | 150° |
| 2026-04-19 10:24 | 27.71260 | 97.06066 | 0 ft | 5925 kts | 152° |
| 2026-04-19 10:24 | 27.34567 | 97.27341 | 0 ft | 5923 kts | 154° |
| 2026-04-19 10:24 | 26.97002 | 97.46056 | 0 ft | 5904 kts | 160° |
| 2026-04-19 10:25 | 26.58052 | 97.60463 | 0 ft | 5889 kts | 164° |
| 2026-04-19 10:25 | 26.18769 | 97.73371 | 0 ft | 5876 kts | 164° |
| 2026-04-19 10:25 | 25.79633 | 97.86177 | 99856 ft | 5851 kts | 164° |
| 2026-04-19 10:25 | 25.40621 | 97.98908 | 0 ft | 5848 kts | 164° |
| 2026-04-19 10:26 | 25.01579 | 98.11615 | 99704 ft | 5844 kts | 164° |
| 2026-04-19 10:26 | 24.75798 | 98.19988 | 99272 ft | 5821 kts | 164° |
| 2026-04-19 10:26 | 24.37090 | 98.32531 | 98141 ft | 5778 kts | 164° |
| 2026-04-19 10:26 | 23.98720 | 98.44950 | 96693 ft | 5713 kts | 164° |
| 2026-04-19 10:27 | 23.60888 | 98.57181 | 96211 ft | 5636 kts | 164° |
| 2026-04-19 10:27 | 23.19375 | 98.70621 | 95446 ft | 3783 kts | 164° |
| 2026-04-19 10:27 | 23.03194 | 98.75897 | 94917 ft | 3593 kts | 164° |
| 2026-04-19 10:27 | 22.79545 | 98.83604 | 94799 ft | 3522 kts | 164° |
| 2026-04-19 10:28 | 22.56153 | 98.91212 | 94965 ft | 3503 kts | 164° |
| 2026-04-19 10:28 | 22.32863 | 98.98773 | 95232 ft | 3494 kts | 164° |
| 2026-04-19 10:28 | 22.09574 | 99.06321 | 95481 ft | 3491 kts | 164° |
| 2026-04-19 10:28 | 21.86289 | 99.13855 | 0 ft | 3499 kts | 163° |
| 2026-04-19 10:29 | 21.62945 | 99.21394 | 0 ft | 3508 kts | 163° |
| 2026-04-19 10:29 | 21.39533 | 99.28942 | 0 ft | 3521 kts | 163° |
| 2026-04-19 10:29 | 21.16098 | 99.36489 | 95836 ft | 3504 kts | 163° |
| 2026-04-19 10:29 | 20.92782 | 99.43986 | 96088 ft | 3497 kts | 163° |
| 2026-04-19 10:30 | 20.69536 | 99.51447 | 94652 ft | 3477 kts | 164° |
| 2026-04-19 10:30 | 20.46244 | 99.58903 | 91256 ft | 3507 kts | 163° |
| 2026-04-19 10:30 | 20.22898 | 99.66381 | 90856 ft | 3506 kts | 163° |
| 2026-04-19 10:30 | 19.99536 | 99.73862 | 90849 ft | 3509 kts | 163° |
| 2026-04-19 10:31 | 19.76132 | 99.81346 | 90718 ft | 3509 kts | 163° |
| 2026-04-19 10:31 | 19.52751 | 99.88812 | 90527 ft | 3509 kts | 163° |
| 2026-04-19 10:31 | 19.29393 | 99.96260 | 90407 ft | 3509 kts | 163° |
| 2026-04-19 10:31 | 19.07441 | 100.03419 | 89476 ft | 2963 kts | 161° |
| 2026-04-19 10:32 | 18.89406 | 100.09326 | 86755 ft | 2550 kts | 165° |
| 2026-04-19 10:32 | 18.72495 | 100.13946 | 84464 ft | 2447 kts | 181° |
| 2026-04-19 10:32 | 18.56341 | 100.13473 | 77305 ft | 2249 kts | 181° |
| 2026-04-19 10:32 | 18.41600 | 100.15156 | 65370 ft | 2048 kts | 157° |
| 2026-04-19 10:33 | 18.30676 | 100.22835 | 50596 ft | 1725 kts | 130° |
| 2026-04-19 10:33 | 18.25975 | 100.32447 | 32765 ft | 1281 kts | 96° |
| 2026-04-19 10:33 | 18.27428 | 100.40365 | 18448 ft | 1012 kts | 59° |
| 2026-04-19 10:33 | 18.31638 | 100.45464 | 11093 ft | 840 kts | 39° |
| 2026-04-19 10:34 | 18.35712 | 100.48866 | 11535 ft | 701 kts | 37° |
| 2026-04-19 10:34 | 18.38900 | 100.52096 | 11117 ft | 610 kts | 51° |
| 2026-04-19 10:34 | 18.39774 | 100.56263 | 10851 ft | 598 kts | 86° |
| 2026-04-19 10:34 | 18.40003 | 100.60841 | 11710 ft | 647 kts | 87° |
| 2026-04-19 10:35 | 18.40178 | 100.65554 | 12891 ft | 636 kts | 88° |
| 2026-04-19 10:35 | 18.40341 | 100.70127 | 15490 ft | 619 kts | 87° |
| 2026-04-19 10:35 | 18.40504 | 100.74669 | 17776 ft | 627 kts | 86° |
| 2026-04-19 10:35 | 18.40679 | 100.79319 | 18018 ft | 635 kts | 87° |
| 2026-04-19 10:36 | 18.40802 | 100.83924 | 19409 ft | 623 kts | 88° |
| 2026-04-19 10:36 | 18.41780 | 100.88228 | 21114 ft | 612 kts | 67° |
| 2026-04-19 10:36 | 18.43428 | 100.92431 | 22098 ft | 627 kts | 66° |
| 2026-04-19 10:36 | 18.45123 | 100.96663 | 22621 ft | 626 kts | 66° |
| 2026-04-19 10:37 | 18.46829 | 101.00914 | 22153 ft | 640 kts | 65° |
| 2026-04-19 10:37 | 18.48607 | 101.05305 | 21193 ft | 663 kts | 65° |
| 2026-04-19 10:37 | 18.50463 | 101.09877 | 20762 ft | 700 kts | 65° |
| 2026-04-19 10:37 | 18.52468 | 101.14795 | 19724 ft | 762 kts | 65° |
| 2026-04-19 10:38 | 18.54712 | 101.20132 | 18744 ft | 834 kts | 65° |
| 2026-04-19 10:38 | 18.57576 | 101.24811 | 17094 ft | 615 kts | 32° |
| 2026-04-19 10:38 | 18.60046 | 101.27415 | 9402 ft | 509 kts | 49° |
| 2026-04-19 10:38 | 18.62499 | 101.29586 | 3902 ft | 436 kts | 15° |
| 2026-04-19 10:39 | 18.65207 | 101.30506 | 2042 ft | 357 kts | 20° |
| 2026-04-19 10:39 | 18.66469 | 101.30698 | 2042 ft | 68 kts | 11° |
| 2026-04-19 10:39 | 18.66560 | 101.30725 | 2001 ft | 0 kts | 16° |
| 2026-04-19 10:39 | 18.66568 | 101.30728 | 2007 ft | 22 kts | 26° |
| 2026-04-19 10:40 | 18.66647 | 101.30815 | 2105 ft | 26 kts | 66° |
| 2026-04-19 10:40 | 18.66559 | 101.30923 | 2115 ft | 31 kts | 146° |
| 2026-04-19 10:40 | 18.66526 | 101.30945 | 2109 ft | 0 kts | 155° |
| 2026-04-19 10:40 | 18.66527 | 101.30946 | 2111 ft | 0 kts | 155° |
| 2026-04-19 10:41 | 18.66348 | 101.31024 | 2177 ft | 130 kts | 158° |
| 2026-04-19 10:41 | 18.64976 | 101.31899 | 3423 ft | 318 kts | 121° |
| 2026-04-19 10:41 | 18.65381 | 101.34740 | 3948 ft | 505 kts | 51° |
| 2026-04-19 10:41 | 18.68872 | 101.35509 | 3992 ft | 605 kts | 325° |
| 2026-04-19 10:42 | 18.71232 | 101.31688 | 4430 ft | 648 kts | 296° |
| 2026-04-19 10:42 | 18.73164 | 101.27346 | 4545 ft | 658 kts | 293° |
| 2026-04-19 10:42 | 18.74878 | 101.22911 | 5131 ft | 648 kts | 290° |
| 2026-04-19 10:42 | 18.76457 | 101.18435 | 4176 ft | 656 kts | 289° |
| 2026-04-19 10:43 | 18.78013 | 101.13971 | 5424 ft | 644 kts | 292° |
| 2026-04-19 10:43 | 18.81299 | 101.10932 | 6311 ft | 651 kts | 327° |
| 2026-04-19 10:43 | 18.85182 | 101.08380 | 5539 ft | 657 kts | 328° |
| 2026-04-19 10:43 | 18.89056 | 101.05914 | 6580 ft | 647 kts | 328° |
| 2026-04-19 10:44 | 18.92468 | 101.02856 | 6042 ft | 647 kts | 303° |
| 2026-04-19 10:44 | 18.94165 | 100.98497 | 5895 ft | 641 kts | 271° |
| 2026-04-19 10:44 | 18.92540 | 100.94476 | 4819 ft | 518 kts | 236° |
| 2026-04-19 10:44 | 18.90823 | 100.91341 | 3565 ft | 500 kts | 243° |
| 2026-04-19 10:45 | 18.89499 | 100.88404 | 3397 ft | 420 kts | 243° |
| 2026-04-19 10:45 | 18.88228 | 100.85667 | 4308 ft | 395 kts | 242° |
| 2026-04-19 10:45 | 18.87037 | 100.83572 | 3468 ft | 277 kts | 231° |
| 2026-04-19 10:45 | 18.85707 | 100.81845 | 2397 ft | 341 kts | 227° |
| 2026-04-19 10:46 | 18.84151 | 100.80365 | 1936 ft | 273 kts | 218° |
| 2026-04-19 10:46 | 18.82778 | 100.79332 | 1271 ft | 221 kts | 220° |
| 2026-04-19 10:46 | 18.81491 | 100.78617 | 768 ft | 213 kts | 201° |
| 2026-04-19 10:46 | 18.80359 | 100.78177 | 682 ft | 120 kts | 201° |
| 2026-04-19 10:47 | 18.79993 | 100.78034 | 680 ft | 23 kts | 185° |
| 2026-04-19 10:47 | 18.79944 | 100.78070 | 680 ft | 6 kts | 82° |
| 2026-04-19 10:47 | 18.80061 | 100.78227 | 682 ft | 39 kts | 42° |
| 2026-04-19 10:47 | 18.80247 | 100.78368 | 682 ft | 27 kts | 25° |
| 2026-04-19 10:48 | 18.80322 | 100.78404 | 682 ft | 0 kts | 24° |